createdAt,value
2022-11-30T09:51:58.683Z,61.71
2022-11-30T09:54:36.845Z,61.73
2022-11-30T09:57:29.151Z,61.51
2022-11-30T10:00:02.300Z,61.68
2022-11-30T10:02:39.688Z,61.29
2022-11-30T10:05:19.623Z,61.30
2022-11-30T10:07:55.110Z,61.41
2022-11-30T10:10:36.458Z,61.38
2022-11-30T10:13:28.116Z,61.19
2022-11-30T10:16:04.175Z,61.36
2022-11-30T10:18:44.203Z,60.95
2022-11-30T10:21:23.223Z,60.66
2022-11-30T10:24:05.223Z,60.73
2022-11-30T10:26:38.239Z,60.67
2022-11-30T10:29:18.290Z,60.14
2022-11-30T10:31:47.562Z,60.33
2022-11-30T10:34:22.274Z,60.22
2022-11-30T10:37:29.400Z,59.84
2022-11-30T10:40:00.291Z,59.90
2022-11-30T10:42:42.724Z,59.75
2022-11-30T10:45:13.523Z,59.81
2022-11-30T10:48:07.792Z,59.78
2022-11-30T10:50:34.649Z,59.76
2022-11-30T10:53:01.821Z,59.43
2022-11-30T10:55:31.498Z,58.91
2022-11-30T10:58:05.255Z,58.77
2022-11-30T11:00:32.525Z,58.75
2022-11-30T11:02:59.164Z,59.01
2022-11-30T11:05:31.032Z,58.74
2022-11-30T11:08:17.114Z,58.76
2022-11-30T11:10:47.657Z,58.40
2022-11-30T11:13:41.968Z,58.26
2022-11-30T11:16:11.701Z,58.02
2022-11-30T11:18:57.787Z,58.07
2022-11-30T11:21:24.995Z,57.86
2022-11-30T11:23:57.188Z,57.28
2022-11-30T11:26:26.257Z,57.49
2022-11-30T11:28:55.068Z,57.44
2022-11-30T11:31:44.431Z,57.04
2022-11-30T11:34:32.081Z,56.31
2022-11-30T11:37:26.428Z,56.22
2022-11-30T11:40:05.579Z,56.29
2022-11-30T11:42:36.848Z,56.16
2022-11-30T11:45:06.260Z,55.81
2022-11-30T11:47:37.323Z,54.63
2022-11-30T11:50:49.854Z,54.36
2022-11-30T11:53:25.387Z,55.07
2022-11-30T11:56:10.078Z,54.76
2022-11-30T11:58:39.671Z,54.81
2022-11-30T12:01:38.722Z,54.23
2022-11-30T12:04:13.295Z,54.52
2022-11-30T12:06:42.263Z,53.79
2022-11-30T12:09:17.172Z,53.49
2022-11-30T12:11:47.551Z,53.65
2022-11-30T12:14:17.002Z,53.68
2022-11-30T12:16:49.774Z,54.09
2022-11-30T12:19:29.543Z,54.67
2022-11-30T12:22:21.264Z,55.29
2022-11-30T12:25:15.764Z,55.98
2022-11-30T12:27:57.524Z,56.61
2022-11-30T12:30:42.913Z,56.77
2022-11-30T12:33:21.357Z,57.29
2022-11-30T12:36:06.516Z,57.21
2022-11-30T12:38:45.598Z,57.58
2022-11-30T12:41:34.974Z,57.82
2022-11-30T12:44:42.042Z,58.13
2022-11-30T12:47:33.093Z,57.65
2022-11-30T12:50:21.412Z,57.73
2022-11-30T12:52:50.774Z,58.23
2022-11-30T12:55:32.915Z,58.50
2022-11-30T12:58:17.901Z,58.20
2022-11-30T13:00:50.517Z,58.76
2022-11-30T13:03:30.132Z,59.25
2022-11-30T13:06:01.162Z,60.56
2022-11-30T13:08:35.603Z,59.49
2022-11-30T13:11:12.320Z,59.42
2022-11-30T13:13:48.177Z,59.66
2022-11-30T13:16:15.437Z,59.60
2022-11-30T13:18:42.802Z,58.70
2022-11-30T13:21:21.517Z,58.56
2022-11-30T13:23:59.978Z,58.54
2022-11-30T13:26:44.533Z,58.38
2022-11-30T13:29:22.988Z,58.47
2022-11-30T13:32:48.629Z,58.69
2022-11-30T13:35:27.571Z,58.68
2022-11-30T13:38:34.798Z,58.81
2022-11-30T13:41:10.851Z,59.16
2022-11-30T13:43:45.840Z,59.44
2022-11-30T13:46:18.699Z,59.36
2022-11-30T13:48:46.368Z,59.91
2022-11-30T13:51:33.208Z,60.36
2022-11-30T13:54:38.880Z,60.59
2022-11-30T13:57:24.210Z,61.00
2022-11-30T13:59:53.147Z,60.72
2022-11-30T14:05:35.109Z,61.41
2022-11-30T14:08:01.779Z,61.49
2022-11-30T14:10:28.844Z,61.63
2022-11-30T14:12:59.906Z,61.67
2022-11-30T14:15:38.825Z,61.67
2022-11-30T14:18:19.919Z,61.65
2022-11-30T14:21:13.084Z,62.05
2022-11-30T14:23:39.799Z,61.98
2022-11-30T14:26:13.699Z,61.88
2022-11-30T14:28:57.412Z,61.92
2022-11-30T14:31:33.242Z,61.55
2022-11-30T14:34:15.645Z,61.33
2022-11-30T14:36:47.931Z,60.66
2022-11-30T14:39:34.221Z,60.32
2022-11-30T14:42:02.596Z,59.51
2022-11-30T14:44:39.281Z,59.91
2022-11-30T14:47:20.635Z,59.84
2022-11-30T14:49:52.148Z,59.87
2022-11-30T14:52:38.153Z,59.90
2022-11-30T14:55:13.635Z,59.91
2022-11-30T14:57:47.499Z,60.06
2022-11-30T15:00:17.325Z,59.82
2022-11-30T15:02:45.116Z,59.66
2022-11-30T15:05:17.455Z,60.09
2022-11-30T15:07:45.761Z,59.78
2022-11-30T15:10:29.614Z,59.66
2022-11-30T15:12:58.579Z,59.88
2022-11-30T15:15:27.917Z,59.99
2022-11-30T15:17:55.879Z,60.36
2022-11-30T15:20:29.765Z,60.68
2022-11-30T15:23:00.297Z,60.46
2022-11-30T15:25:43.335Z,60.25
2022-11-30T15:28:14.425Z,60.20
2022-11-30T15:30:45.348Z,60.38
2022-11-30T15:33:23.680Z,60.06
2022-11-30T15:36:16.280Z,59.62
2022-11-30T15:38:41.579Z,59.64
2022-11-30T15:41:23.956Z,59.43
2022-11-30T15:43:55.767Z,59.43
2022-11-30T15:46:34.674Z,59.30
2022-11-30T15:49:25.144Z,59.41
2022-11-30T15:52:09.790Z,59.37
2022-11-30T15:54:55.179Z,59.55
2022-11-30T15:57:24.320Z,59.60
2022-11-30T16:00:12.510Z,59.62
2022-11-30T16:02:39.295Z,59.84
2022-11-30T16:05:14.429Z,59.84
2022-11-30T16:07:52.849Z,59.86
2022-11-30T16:10:26.683Z,59.79
2022-11-30T16:12:55.067Z,60.08
2022-11-30T16:15:25.136Z,59.92
2022-11-30T16:17:55.000Z,60.08
2022-11-30T16:20:22.098Z,59.88
2022-11-30T16:22:49.219Z,60.19
2022-11-30T16:25:18.336Z,60.06
2022-11-30T16:27:45.124Z,60.08
2022-11-30T16:30:20.449Z,60.03
2022-11-30T16:32:47.859Z,60.16
2022-11-30T16:35:17.159Z,60.08
2022-11-30T16:37:43.810Z,60.17
2022-11-30T16:40:11.076Z,60.34
2022-11-30T16:42:37.721Z,60.19
2022-11-30T16:45:04.730Z,60.23
2022-11-30T16:47:31.472Z,60.33
2022-11-30T16:49:58.092Z,60.49
2022-11-30T16:52:24.704Z,60.48
2022-11-30T16:54:51.292Z,60.89
2022-11-30T16:57:17.937Z,60.85
2022-11-30T16:59:44.750Z,61.17
2022-11-30T17:02:20.008Z,61.10
2022-11-30T17:04:47.109Z,61.34
2022-11-30T17:07:14.110Z,61.25
2022-11-30T17:09:40.809Z,61.34
2022-11-30T17:12:09.485Z,61.57
2022-11-30T17:14:36.122Z,61.53
2022-11-30T17:17:02.835Z,61.59
2022-11-30T17:19:29.705Z,61.74
2022-11-30T17:21:56.314Z,61.90
2022-11-30T17:24:22.996Z,61.94
2022-11-30T17:26:49.899Z,61.94
2022-11-30T17:29:16.595Z,62.13
2022-11-30T17:31:43.204Z,62.06
2022-11-30T17:34:09.877Z,62.15
2022-11-30T17:36:36.591Z,62.30
2022-11-30T17:39:07.629Z,62.25
2022-11-30T17:41:34.289Z,62.28
2022-11-30T17:44:04.029Z,62.36
2022-11-30T17:46:30.740Z,62.50
2022-11-30T17:48:57.399Z,62.52
2022-11-30T17:51:24.090Z,62.60
2022-11-30T17:53:50.920Z,62.81
2022-11-30T17:56:17.864Z,62.74
2022-11-30T17:58:45.334Z,62.77
2022-11-30T18:01:23.876Z,63.01
2022-11-30T18:03:51.791Z,62.86
2022-11-30T18:06:19.214Z,62.89
2022-11-30T18:08:46.209Z,63.10
2022-11-30T18:11:15.821Z,63.18
2022-11-30T18:13:42.736Z,63.37
2022-11-30T18:16:15.116Z,63.42
2022-11-30T18:18:47.400Z,63.48
2022-11-30T18:21:17.750Z,63.74
2022-11-30T18:23:44.531Z,63.74
2022-11-30T18:26:13.651Z,63.80
2022-11-30T18:28:40.895Z,63.95
2022-11-30T18:31:07.830Z,64.21
2022-11-30T18:33:35.619Z,64.22
2022-11-30T18:36:05.079Z,64.44
2022-11-30T18:38:37.024Z,64.34
2022-11-30T18:41:04.646Z,64.36
2022-11-30T18:43:33.469Z,64.42
2022-11-30T18:46:08.409Z,64.54
2022-11-30T18:48:36.078Z,64.64
2022-11-30T18:51:17.488Z,65.00
2022-11-30T18:53:44.146Z,65.46
2022-11-30T18:56:14.467Z,65.22
2022-11-30T18:58:42.323Z,65.49
2022-11-30T19:01:18.261Z,65.42
2022-11-30T19:03:56.598Z,65.32
2022-11-30T19:06:30.079Z,65.08
2022-11-30T19:08:57.370Z,65.16
2022-11-30T19:11:24.645Z,65.19
2022-11-30T19:13:56.582Z,65.05
2022-11-30T19:16:24.794Z,65.11
2022-11-30T19:18:52.686Z,65.50
2022-11-30T19:21:20.837Z,66.10
2022-11-30T19:23:48.593Z,65.92
2022-11-30T19:26:15.951Z,65.77
2022-11-30T19:28:44.131Z,65.79
2022-11-30T19:31:16.306Z,65.90
2022-11-30T19:33:45.634Z,65.96
2022-11-30T19:36:21.443Z,65.94
2022-11-30T19:38:48.668Z,65.98
2022-11-30T19:41:15.721Z,65.78
2022-11-30T19:43:47.729Z,65.64
2022-11-30T19:46:17.965Z,65.78
2022-11-30T19:48:44.880Z,65.86
2022-11-30T19:51:17.931Z,66.12
2022-11-30T19:53:45.714Z,65.97
2022-11-30T19:56:15.277Z,66.49
2022-11-30T19:58:43.997Z,66.68
2022-11-30T20:01:14.566Z,66.72
2022-11-30T20:03:41.590Z,66.83
2022-11-30T20:06:08.333Z,66.85
2022-11-30T20:08:36.922Z,66.97
2022-11-30T20:11:10.919Z,67.01
2022-11-30T20:13:38.018Z,67.00
2022-11-30T20:16:16.171Z,66.70
2022-11-30T20:18:46.206Z,66.77
2022-11-30T20:21:18.526Z,66.85
2022-11-30T20:23:47.545Z,66.95
2022-11-30T20:26:29.823Z,67.15
2022-11-30T20:28:57.723Z,67.11
2022-11-30T20:31:25.713Z,67.06
2022-11-30T20:33:52.981Z,67.06
2022-11-30T20:36:20.766Z,67.21
2022-11-30T20:38:47.529Z,66.82
2022-11-30T20:41:20.032Z,66.73
2022-11-30T20:43:46.987Z,67.14
2022-11-30T20:46:23.942Z,67.41
2022-11-30T20:48:51.758Z,67.35
2022-11-30T20:51:31.736Z,67.26
2022-11-30T20:54:00.822Z,67.16
2022-11-30T20:56:27.484Z,67.33
2022-11-30T20:58:54.218Z,67.12
2022-11-30T21:01:22.766Z,67.32
2022-11-30T21:03:49.565Z,67.27
2022-11-30T21:06:16.193Z,67.35
2022-11-30T21:08:43.656Z,67.56
2022-11-30T21:11:13.364Z,67.50
2022-11-30T21:13:42.251Z,67.84
2022-11-30T21:16:09.022Z,67.80
2022-11-30T21:18:40.530Z,67.52
2022-11-30T21:21:13.108Z,67.52
2022-11-30T21:23:40.250Z,67.30
2022-11-30T21:26:10.496Z,67.32
2022-11-30T21:28:38.378Z,67.79
2022-11-30T21:31:05.964Z,67.83
2022-11-30T21:33:32.839Z,67.70
2022-11-30T21:35:59.483Z,67.39
2022-11-30T21:38:26.134Z,67.47
2022-11-30T21:41:00.102Z,67.44
2022-11-30T21:43:27.960Z,67.14
2022-11-30T21:46:05.340Z,67.41
2022-11-30T21:48:34.850Z,67.59
2022-11-30T21:51:09.877Z,67.67
2022-11-30T21:53:44.387Z,67.88
2022-11-30T21:56:14.760Z,67.37
2022-11-30T21:58:44.071Z,67.42
2022-11-30T22:01:53.429Z,67.82
2022-11-30T22:04:20.252Z,67.62
2022-11-30T22:06:46.858Z,67.40
2022-11-30T22:09:15.786Z,68.06
2022-11-30T22:11:45.204Z,68.08
2022-11-30T22:14:16.302Z,67.71
2022-11-30T22:16:44.900Z,68.18
2022-11-30T22:19:11.543Z,67.95
2022-11-30T22:21:38.861Z,67.93
2022-11-30T22:24:09.204Z,67.40
2022-11-30T22:26:40.957Z,67.45
2022-11-30T22:29:11.386Z,67.76
2022-11-30T22:31:40.963Z,67.44
2022-11-30T22:34:08.523Z,67.35
2022-11-30T22:36:36.880Z,67.25
2022-11-30T22:39:12.374Z,67.32
2022-11-30T22:41:40.558Z,67.26
2022-11-30T22:44:07.298Z,67.73
2022-11-30T22:46:36.872Z,67.35
2022-11-30T22:49:06.856Z,67.07
2022-11-30T22:51:35.697Z,67.14
2022-11-30T22:54:02.714Z,67.16
2022-11-30T22:56:34.101Z,67.00
2022-11-30T22:59:01.215Z,67.04
2022-11-30T23:01:30.950Z,67.11
2022-11-30T23:04:12.079Z,67.23
2022-11-30T23:06:40.743Z,67.04
2022-11-30T23:09:14.606Z,67.30
2022-11-30T23:11:41.748Z,67.09
2022-11-30T23:14:09.615Z,67.41
2022-11-30T23:16:36.862Z,67.52
2022-11-30T23:19:04.595Z,67.61
2022-11-30T23:21:40.341Z,67.55
2022-11-30T23:24:12.201Z,67.56
2022-11-30T23:26:39.104Z,68.23
2022-11-30T23:29:09.675Z,68.44
2022-11-30T23:31:38.675Z,68.43
2022-11-30T23:34:10.638Z,68.90
2022-11-30T23:36:37.639Z,68.81
2022-11-30T23:39:07.850Z,69.19
2022-11-30T23:41:34.574Z,68.90
2022-11-30T23:44:01.370Z,69.10
2022-11-30T23:46:28.391Z,69.37
2022-11-30T23:48:55.756Z,69.04
2022-11-30T23:51:23.567Z,69.76
2022-11-30T23:53:50.225Z,69.65
2022-11-30T23:56:18.841Z,69.39
2022-11-30T23:58:45.613Z,70.00
